createdAt,value
2017-05-08T00:00:45.971Z,13.2
2017-05-08T00:01:48.312Z,13.2
2017-05-08T00:02:50.646Z,13.2
2017-05-08T00:03:53.009Z,13.2
2017-05-08T00:04:55.396Z,13.3
2017-05-08T00:05:57.747Z,13.2
2017-05-08T00:07:00.390Z,13.2
2017-05-08T00:08:02.722Z,13.3
2017-05-08T00:09:05.081Z,13.3
2017-05-08T00:10:07.446Z,13.2
2017-05-08T00:11:09.785Z,13.2
2017-05-08T00:12:12.099Z,13.3
2017-05-08T00:13:14.430Z,13.3
2017-05-08T00:14:16.768Z,13.3
2017-05-08T00:15:19.116Z,13.2
2017-05-08T00:16:21.497Z,13.2
2017-05-08T00:17:23.864Z,13.3
2017-05-08T00:18:26.284Z,13.3
2017-05-08T00:19:28.637Z,13.3
2017-05-08T00:20:30.976Z,13.3
2017-05-08T00:21:33.320Z,13.2
2017-05-08T00:22:35.638Z,13.1
2017-05-08T00:23:38.031Z,13.2
2017-05-08T00:24:40.438Z,13.2
2017-05-08T00:25:42.773Z,13.2
2017-05-08T00:26:45.515Z,13.3
2017-05-08T00:27:47.939Z,13.3
2017-05-08T00:28:50.280Z,13.2
2017-05-08T00:29:52.613Z,13.1
2017-05-08T00:30:55.003Z,13.2
2017-05-08T00:31:57.349Z,13.1
2017-05-08T00:32:59.712Z,13.1
2017-05-08T00:34:02.037Z,13.1
2017-05-08T00:35:04.372Z,13.1
2017-05-08T00:36:06.732Z,13.2
2017-05-08T00:37:09.095Z,13
2017-05-08T00:38:11.437Z,13
2017-05-08T00:39:13.844Z,13.1
2017-05-08T00:40:16.178Z,13.1
2017-05-08T00:41:18.709Z,13.2
2017-05-08T00:42:21.069Z,13
2017-05-08T00:43:23.408Z,13
2017-05-08T00:44:25.758Z,13.1
2017-05-08T00:45:28.091Z,13.1
2017-05-08T00:46:30.489Z,13
2017-05-08T00:47:32.852Z,13
2017-05-08T00:48:35.188Z,12.7
2017-05-08T00:49:37.569Z,12.8
2017-05-08T00:50:39.939Z,12.9
2017-05-08T00:51:42.306Z,12.8
2017-05-08T00:52:44.622Z,12.9
2017-05-08T00:53:47.004Z,12.7
2017-05-08T00:54:49.372Z,12.8
2017-05-08T00:55:51.750Z,12.8
2017-05-08T00:56:54.105Z,12.8
2017-05-08T00:57:56.444Z,12.7
2017-05-08T00:58:58.812Z,12.7
2017-05-08T01:00:01.130Z,12.9
2017-05-08T01:01:03.533Z,12.9
2017-05-08T01:02:05.878Z,12.7
2017-05-08T01:03:08.238Z,12.8
2017-05-08T01:04:10.579Z,12.6
2017-05-08T01:05:12.927Z,12.4
2017-05-08T01:06:15.289Z,12.7
2017-05-08T01:07:17.646Z,12.7
2017-05-08T01:08:20.363Z,12.8
2017-05-08T01:09:22.689Z,12.8
2017-05-08T01:10:25.066Z,12.7
2017-05-08T01:11:27.429Z,12.5
2017-05-08T01:12:30.076Z,12.5
2017-05-08T01:13:32.554Z,12.4
2017-05-08T01:14:34.928Z,12.5
2017-05-08T01:15:37.356Z,12.3
2017-05-08T01:16:39.879Z,12.4
2017-05-08T01:17:42.240Z,12.5
2017-05-08T01:18:44.657Z,12.2
2017-05-08T01:19:47.030Z,12.4
2017-05-08T01:20:49.378Z,12.5
2017-05-08T01:21:51.733Z,12.5
2017-05-08T01:22:54.084Z,12.4
2017-05-08T01:23:56.425Z,12.3
2017-05-08T01:24:58.791Z,12.3
2017-05-08T01:26:01.181Z,12.2
2017-05-08T01:27:03.524Z,12
2017-05-08T01:28:06.354Z,12.2
2017-05-08T01:29:08.722Z,12.2
2017-05-08T01:30:11.108Z,12.3
2017-05-08T01:31:13.473Z,12.3
2017-05-08T01:32:15.818Z,12.3
2017-05-08T01:33:18.172Z,12.2
2017-05-08T01:34:20.506Z,12.2
2017-05-08T01:35:22.809Z,12.2
2017-05-08T01:36:25.198Z,12.3
2017-05-08T01:37:27.511Z,12
2017-05-08T01:38:29.878Z,12.2
2017-05-08T01:39:32.232Z,12
2017-05-08T01:40:34.587Z,11.8
2017-05-08T01:41:36.897Z,11.7
2017-05-08T01:42:39.231Z,11.6
2017-05-08T01:43:41.861Z,11.8
2017-05-08T01:44:44.216Z,11.8
2017-05-08T01:45:46.583Z,11.8
2017-05-08T01:46:49.016Z,11.8
2017-05-08T01:47:51.414Z,12
2017-05-08T01:48:53.762Z,12.1
2017-05-08T01:49:56.101Z,11.7
2017-05-08T01:50:58.487Z,12.1
2017-05-08T01:52:00.876Z,12.1
2017-05-08T01:53:03.214Z,11.9
2017-05-08T01:54:05.612Z,11.8
2017-05-08T01:55:07.989Z,11.7
2017-05-08T01:56:10.317Z,11.5
2017-05-08T01:57:12.667Z,11.5
2017-05-08T01:58:15.001Z,11.6
2017-05-08T01:59:17.637Z,11.6
2017-05-08T02:00:19.998Z,11.6
2017-05-08T02:01:22.381Z,11.4
2017-05-08T02:02:24.746Z,11.3
2017-05-08T02:03:27.094Z,11.4
2017-05-08T02:04:29.498Z,11.4
2017-05-08T02:05:31.830Z,11.4
2017-05-08T02:06:34.516Z,11.6
2017-05-08T02:07:37.221Z,11.7
2017-05-08T02:08:39.581Z,11.6
2017-05-08T02:09:42.298Z,11.8
2017-05-08T02:11:56.693Z,11.8
2017-05-08T02:12:59.075Z,11.9
2017-05-08T02:14:01.536Z,11.8
2017-05-08T02:15:04.190Z,11.7
2017-05-08T02:16:06.580Z,11.5
2017-05-08T02:17:08.908Z,11.3
2017-05-08T02:18:11.252Z,11.4
2017-05-08T02:19:13.591Z,11.8
2017-05-08T02:20:16.156Z,11.7
2017-05-08T02:21:18.894Z,11.4
2017-05-08T02:22:21.512Z,11.4
2017-05-08T02:23:23.839Z,11.3
2017-05-08T02:24:26.183Z,10.7
2017-05-08T02:25:28.513Z,10.8
2017-05-08T02:26:30.855Z,10.8
2017-05-08T02:27:33.187Z,10.6
2017-05-08T02:28:35.529Z,11.1
2017-05-08T02:29:37.895Z,11.1
2017-05-08T02:30:40.513Z,10.8
2017-05-08T02:31:42.874Z,10.5
2017-05-08T02:32:45.219Z,10.4
2017-05-08T02:33:47.576Z,10.5
2017-05-08T02:34:49.929Z,10.4
2017-05-08T02:35:52.312Z,10.3
2017-05-08T02:36:54.696Z,10.6
2017-05-08T02:37:57.032Z,10.5
2017-05-08T02:38:59.372Z,10.6
2017-05-08T02:40:01.806Z,10.4
2017-05-08T02:41:04.178Z,10.4
2017-05-08T02:42:06.526Z,10.4
2017-05-08T02:43:08.927Z,10.4
2017-05-08T02:44:11.247Z,10.3
2017-05-08T02:45:13.626Z,10.7
2017-05-08T02:46:16.208Z,10.8
2017-05-08T02:47:18.557Z,10.6
2017-05-08T02:48:20.950Z,10.7
2017-05-08T02:49:23.284Z,10.4
2017-05-08T02:50:25.656Z,10.5
2017-05-08T02:51:27.985Z,10.7
2017-05-08T02:52:30.322Z,10.6
2017-05-08T02:53:32.643Z,10.8
2017-05-08T02:54:34.984Z,10.6
2017-05-08T02:55:37.362Z,10.7
2017-05-08T02:56:39.710Z,10.8
2017-05-08T02:57:42.078Z,10.9
2017-05-08T02:58:44.437Z,10.6
2017-05-08T02:59:46.778Z,10.6
2017-05-08T03:00:49.102Z,10.3
2017-05-08T03:01:52.008Z,10.3
2017-05-08T03:02:54.337Z,10.1
2017-05-08T03:03:56.705Z,10.1
2017-05-08T03:04:59.051Z,10.1
2017-05-08T03:06:01.412Z,10.1
2017-05-08T03:07:03.795Z,9.8
2017-05-08T03:08:06.135Z,9.8
2017-05-08T03:09:08.536Z,10.2
2017-05-08T03:10:10.904Z,10.2
2017-05-08T03:11:13.225Z,10
2017-05-08T03:12:15.560Z,9.8
2017-05-08T03:13:17.893Z,9.8
2017-05-08T03:14:20.307Z,9.8
2017-05-08T03:15:22.645Z,9.6
2017-05-08T03:16:25.019Z,9.6
2017-05-08T03:17:27.716Z,9.8
2017-05-08T03:18:30.039Z,9.9
2017-05-08T03:19:32.440Z,9.6
2017-05-08T03:20:34.761Z,9.8
2017-05-08T03:21:37.111Z,9.6
2017-05-08T03:22:39.449Z,9.4
2017-05-08T03:23:41.819Z,9.7
2017-05-08T03:24:44.209Z,9.6
2017-05-08T03:25:46.570Z,9.5
2017-05-08T03:26:48.957Z,9.6
2017-05-08T03:27:51.297Z,9.3
2017-05-08T03:28:53.772Z,9.4
2017-05-08T03:29:56.120Z,9.3
2017-05-08T03:30:59.004Z,9.2
2017-05-08T03:32:01.374Z,9.3
2017-05-08T03:33:03.762Z,9.6
2017-05-08T03:34:06.134Z,9.7
2017-05-08T03:35:08.477Z,9.9
2017-05-08T03:36:10.805Z,9.8
2017-05-08T03:37:13.150Z,9.9
2017-05-08T03:38:15.517Z,10
2017-05-08T03:39:17.892Z,10
2017-05-08T03:40:21.678Z,10.1
2017-05-08T03:41:30.275Z,9.9
2017-05-08T03:42:34.766Z,10.1
2017-05-08T03:43:38.803Z,9.8
2017-05-08T03:44:43.328Z,9.8
2017-05-08T03:45:47.762Z,10
2017-05-08T03:46:52.194Z,10.2
2017-05-08T03:48:00.772Z,9.6
2017-05-08T03:49:04.740Z,9.9
2017-05-08T03:50:09.112Z,9.8
2017-05-08T03:51:13.667Z,9.9
2017-05-08T03:52:20.005Z,9.9
2017-05-08T03:53:27.658Z,10.2
2017-05-08T03:54:32.154Z,10.1
2017-05-08T03:55:37.044Z,10
2017-05-08T03:56:40.537Z,10
2017-05-08T03:57:45.954Z,9.9
2017-05-08T03:58:48.867Z,10.1
2017-05-08T03:59:51.195Z,9.8
2017-05-08T04:00:53.512Z,9.8
2017-05-08T04:01:55.893Z,9.8
2017-05-08T04:02:58.248Z,10.1
2017-05-08T04:04:00.589Z,9.9
2017-05-08T04:05:03.003Z,10
2017-05-08T04:06:05.416Z,10
2017-05-08T04:07:07.766Z,10.2
2017-05-08T04:08:10.124Z,10.3
2017-05-08T04:09:12.481Z,10.2
2017-05-08T04:10:14.822Z,9.8
2017-05-08T04:11:17.145Z,9.3
2017-05-08T04:12:19.513Z,9.6
2017-05-08T04:13:21.873Z,10
2017-05-08T04:14:24.231Z,10.1
2017-05-08T04:15:26.570Z,10.1
2017-05-08T04:16:28.987Z,10.1
2017-05-08T04:17:31.377Z,10.1
2017-05-08T04:18:33.720Z,9.6
2017-05-08T04:19:36.043Z,9.3
2017-05-08T04:20:38.643Z,9.5
2017-05-08T04:21:41.003Z,9.7
2017-05-08T04:22:43.331Z,9.8
2017-05-08T04:23:45.663Z,9.5
2017-05-08T04:24:47.990Z,9.9
2017-05-08T04:25:50.381Z,9.7
2017-05-08T04:26:52.711Z,10
2017-05-08T04:27:55.061Z,9.9
2017-05-08T04:28:57.441Z,10
2017-05-08T04:29:59.763Z,10
2017-05-08T04:31:02.430Z,9.7
2017-05-08T04:32:04.775Z,9.6
2017-05-08T04:33:07.142Z,9.4
2017-05-08T04:34:09.507Z,9.6
2017-05-08T04:35:11.843Z,9.3
2017-05-08T04:36:14.198Z,9.6
2017-05-08T04:37:16.533Z,9.3
2017-05-08T04:38:18.935Z,9.3
2017-05-08T04:39:21.300Z,9
2017-05-08T04:40:23.686Z,9.1
2017-05-08T04:41:26.085Z,9.1
2017-05-08T04:42:28.454Z,9.3
2017-05-08T04:43:30.832Z,9.3
2017-05-08T04:44:33.172Z,9
2017-05-08T04:45:35.537Z,9.2
2017-05-08T04:46:37.896Z,9.3
2017-05-08T04:47:40.292Z,9.4
2017-05-08T04:48:42.655Z,9.5
2017-05-08T04:49:45.017Z,9.2
2017-05-08T04:50:47.365Z,8.9
2017-05-08T04:51:49.776Z,9
2017-05-08T04:52:52.396Z,8.9
2017-05-08T04:53:54.776Z,9
2017-05-08T04:54:57.200Z,9
2017-05-08T04:55:59.558Z,9
2017-05-08T04:57:01.926Z,9.2
2017-05-08T04:58:04.374Z,9.4
2017-05-08T04:59:06.738Z,9.7
2017-05-08T05:00:09.119Z,9.7
2017-05-08T05:01:11.459Z,9.5
2017-05-08T05:02:13.800Z,9.2
2017-05-08T05:03:16.150Z,9.2
2017-05-08T05:04:18.560Z,8.9
2017-05-08T05:05:20.981Z,9.1
2017-05-08T05:06:23.658Z,9.1
2017-05-08T05:07:26.022Z,9
2017-05-08T05:08:28.368Z,9.2
2017-05-08T05:09:30.732Z,9.4
2017-05-08T05:10:33.116Z,9.3
2017-05-08T05:11:35.488Z,9.2
2017-05-08T05:12:37.854Z,9.6
2017-05-08T05:13:40.268Z,9.6
2017-05-08T05:14:42.575Z,9.3
2017-05-08T05:15:44.969Z,9.4
2017-05-08T05:16:47.368Z,9.1
2017-05-08T05:17:49.728Z,8.9
2017-05-08T05:18:52.069Z,8.9
2017-05-08T05:19:54.484Z,8.9
2017-05-08T05:20:56.890Z,8.8
2017-05-08T05:21:59.334Z,8.7
2017-05-08T05:23:01.707Z,8.7
2017-05-08T05:24:04.043Z,9.1
2017-05-08T05:25:07.113Z,9.4
2017-05-08T05:26:09.562Z,9.1
2017-05-08T05:27:11.955Z,8.9
2017-05-08T05:28:14.346Z,9
2017-05-08T05:29:16.782Z,8.8
2017-05-08T05:30:19.164Z,8.8
2017-05-08T05:31:21.567Z,9
2017-05-08T05:32:23.936Z,8.9
2017-05-08T05:33:26.361Z,8.8
2017-05-08T05:34:28.789Z,8.8
2017-05-08T05:35:32.182Z,8.8
2017-05-08T05:36:34.573Z,8.6
2017-05-08T05:37:36.975Z,9
2017-05-08T05:38:39.653Z,8.6
2017-05-08T05:39:42.197Z,8.7
2017-05-08T05:40:44.594Z,8.7
2017-05-08T05:41:46.994Z,8.5
2017-05-08T05:42:49.364Z,8.6
2017-05-08T05:43:51.684Z,8.6
2017-05-08T05:44:54.021Z,8.3
2017-05-08T05:45:56.435Z,8.4
2017-05-08T05:46:58.832Z,8.3
2017-05-08T05:48:01.132Z,8.6
2017-05-08T05:49:03.580Z,8.6
2017-05-08T05:50:05.987Z,8.9
2017-05-08T05:51:08.382Z,8.6
2017-05-08T05:52:10.765Z,8.4
2017-05-08T05:53:13.185Z,8.6
2017-05-08T05:54:15.642Z,8.7
2017-05-08T05:55:18.005Z,8.8
2017-05-08T05:56:20.395Z,8.6
2017-05-08T05:57:22.806Z,8.8
2017-05-08T05:58:25.426Z,8.4
2017-05-08T05:59:28.139Z,8.9
2017-05-08T06:00:30.526Z,8.4
2017-05-08T06:01:32.922Z,8.6
2017-05-08T06:02:35.306Z,8.7
2017-05-08T06:03:37.714Z,8.6
2017-05-08T06:04:40.111Z,8.7
2017-05-08T06:05:42.485Z,8.9
2017-05-08T06:06:44.840Z,8.9
2017-05-08T06:07:47.217Z,8.4
2017-05-08T06:08:49.569Z,8.5
2017-05-08T06:09:52.009Z,8.4
2017-05-08T06:10:54.322Z,8.6
2017-05-08T06:11:56.728Z,8.9
2017-05-08T06:12:59.245Z,9
2017-05-08T06:14:01.628Z,8.7
2017-05-08T06:15:04.006Z,9.1
2017-05-08T06:16:06.480Z,8.9
2017-05-08T06:17:08.859Z,9
2017-05-08T06:18:11.213Z,9.1
2017-05-08T06:19:13.572Z,9
2017-05-08T06:20:16.018Z,9.1
2017-05-08T06:21:18.455Z,9.4
2017-05-08T06:22:20.864Z,9.3
2017-05-08T06:23:23.282Z,9.1
2017-05-08T06:24:25.638Z,9.2
2017-05-08T06:25:28.205Z,9.4
2017-05-08T06:26:30.649Z,9.3
2017-05-08T06:27:32.991Z,9.1
2017-05-08T06:28:35.399Z,9.1
2017-05-08T06:29:37.794Z,9.3
2017-05-08T06:30:40.426Z,8.9
2017-05-08T06:31:42.890Z,8.9
2017-05-08T06:32:45.346Z,8.7
2017-05-08T06:33:47.776Z,8.6
2017-05-08T06:34:50.148Z,8.6
2017-05-08T06:35:52.517Z,8.7
2017-05-08T06:36:54.902Z,9
2017-05-08T06:37:57.270Z,9.1
2017-05-08T06:39:00.355Z,8.8
2017-05-08T06:40:02.777Z,8.9
2017-05-08T06:41:05.184Z,8.7
2017-05-08T06:42:07.549Z,8.6
2017-05-08T06:43:10.057Z,8.6
2017-05-08T06:44:12.460Z,8.4
2017-05-08T06:45:14.851Z,8.6
2017-05-08T06:46:17.239Z,8.6
2017-05-08T06:47:19.606Z,8.7
2017-05-08T06:48:21.975Z,8.8
2017-05-08T06:49:24.311Z,8.5
2017-05-08T06:50:26.701Z,8.5
2017-05-08T06:51:29.090Z,8.5
2017-05-08T06:52:31.562Z,8.8
2017-05-08T06:53:34.657Z,9.1
2017-05-08T06:54:37.101Z,8.7
2017-05-08T06:55:39.473Z,9.1
2017-05-08T06:56:42.060Z,9.1
2017-05-08T06:57:44.604Z,9
2017-05-08T06:58:46.993Z,9.3
2017-05-08T06:59:49.422Z,9
2017-05-08T07:00:52.236Z,9.1
2017-05-08T07:01:54.714Z,8.5
2017-05-08T07:02:57.117Z,8.9
2017-05-08T07:04:00.252Z,8.9
2017-05-08T07:05:02.683Z,8.8
2017-05-08T07:06:05.219Z,8.8
2017-05-08T07:07:07.638Z,8.6
2017-05-08T07:08:10.097Z,8.3
2017-05-08T07:09:12.520Z,8.3
2017-05-08T07:10:14.890Z,8.7
2017-05-08T07:11:17.342Z,8.7
2017-05-08T07:12:20.601Z,8.3
2017-05-08T07:13:23.053Z,8.7
2017-05-08T07:14:25.465Z,8.9
2017-05-08T07:15:27.866Z,9.2
2017-05-08T07:16:30.326Z,8.5
2017-05-08T07:17:32.848Z,8.3
2017-05-08T07:18:36.008Z,8.6
2017-05-08T07:19:38.447Z,8.7
2017-05-08T07:20:40.857Z,8.9
2017-05-08T07:21:43.228Z,8.8
2017-05-08T07:22:45.597Z,8.7
2017-05-08T07:23:48.202Z,8.6
2017-05-08T07:24:50.920Z,8.9
2017-05-08T07:25:53.539Z,8.8
2017-05-08T07:26:55.944Z,8.8
2017-05-08T07:27:58.845Z,8.8
2017-05-08T07:29:01.272Z,8.8
2017-05-08T07:30:03.631Z,9.1
2017-05-08T07:31:06.004Z,9.1
2017-05-08T07:32:08.340Z,8.7
2017-05-08T07:33:10.709Z,8.6
2017-05-08T07:34:13.085Z,8.6
2017-05-08T07:35:15.471Z,9
2017-05-08T07:36:17.821Z,8.9
2017-05-08T07:37:20.151Z,8.4
2017-05-08T07:38:22.562Z,8.4
2017-05-08T07:39:24.935Z,8.5
2017-05-08T07:40:27.323Z,9
2017-05-08T07:41:29.774Z,9.1
2017-05-08T07:42:32.178Z,8.7
2017-05-08T07:43:34.605Z,8.8
2017-05-08T07:44:37.139Z,8.9
2017-05-08T07:45:39.504Z,8.5
2017-05-08T07:46:41.882Z,8.9
2017-05-08T07:47:44.295Z,8.8
2017-05-08T07:48:46.697Z,8.8
2017-05-08T07:49:49.149Z,8.9
2017-05-08T07:50:51.522Z,8.8
2017-05-08T07:51:53.844Z,8.9
2017-05-08T07:52:56.251Z,8.9
2017-05-08T07:53:58.632Z,8.9
2017-05-08T07:55:01.057Z,8.6
2017-05-08T07:56:03.456Z,8.6
2017-05-08T07:57:05.885Z,8.6
2017-05-08T07:58:08.261Z,8.7
2017-05-08T07:59:11.338Z,8.9
2017-05-08T08:00:13.802Z,9.1
2017-05-08T08:01:16.171Z,8.8
2017-05-08T08:02:18.575Z,8.4
2017-05-08T08:03:21.742Z,9
2017-05-08T08:04:24.177Z,8.8
2017-05-08T08:05:26.560Z,8.3
2017-05-08T08:06:28.945Z,8.4
2017-05-08T08:07:31.306Z,8.8
2017-05-08T08:08:33.769Z,8.9
2017-05-08T08:09:36.177Z,9.1
2017-05-08T08:10:38.634Z,9.1
2017-05-08T08:11:41.129Z,8.8
2017-05-08T08:12:43.544Z,8.5
2017-05-08T08:13:45.963Z,8.8
2017-05-08T08:14:48.641Z,9
2017-05-08T08:15:51.049Z,9
2017-05-08T08:16:53.386Z,8.9
2017-05-08T08:17:55.747Z,9.1
2017-05-08T08:18:58.145Z,9.4
2017-05-08T08:20:01.142Z,9.5
2017-05-08T08:21:03.571Z,9.5
2017-05-08T08:22:05.945Z,9.4
2017-05-08T08:23:09.166Z,9.6
2017-05-08T08:24:11.588Z,9.4
2017-05-08T08:25:14.029Z,9.6
2017-05-08T08:26:16.424Z,9.4
2017-05-08T08:27:18.793Z,9.7
2017-05-08T08:28:21.221Z,9.3
2017-05-08T08:29:23.613Z,9.6
2017-05-08T08:30:26.052Z,9.7
2017-05-08T08:31:28.468Z,9.5
2017-05-08T08:32:30.892Z,9.4
2017-05-08T08:33:33.294Z,9.4
2017-05-08T08:34:36.683Z,9.1
2017-05-08T08:35:39.128Z,9.6
2017-05-08T08:36:41.512Z,9.3
2017-05-08T08:37:43.922Z,9.4
2017-05-08T08:38:46.299Z,9.3
2017-05-08T08:39:48.748Z,9.4
2017-05-08T08:40:51.187Z,9.2
2017-05-08T08:41:53.634Z,9.7
2017-05-08T08:42:56.053Z,9.8
2017-05-08T08:43:58.664Z,10
2017-05-08T08:45:01.611Z,9.8
2017-05-08T08:46:04.008Z,9.9
2017-05-08T08:47:06.502Z,10.1
2017-05-08T08:48:08.931Z,9.9
2017-05-08T08:49:11.344Z,9.9
2017-05-08T08:50:13.794Z,9.9
2017-05-08T08:51:16.157Z,9.8
2017-05-08T08:52:18.553Z,9.4
2017-05-08T08:53:20.911Z,9.8
2017-05-08T08:54:23.280Z,10.1
2017-05-08T08:56:33.318Z,9.8
2017-05-08T08:57:35.716Z,9.9
2017-05-08T08:58:38.073Z,9.4
2017-05-08T08:59:40.499Z,9.5
2017-05-08T09:00:42.932Z,9.4
2017-05-08T09:01:45.655Z,9.8
2017-05-08T09:02:48.010Z,9.4
2017-05-08T09:03:50.458Z,9.5
2017-05-08T09:04:52.922Z,9.7
2017-05-08T09:05:55.327Z,9.8
2017-05-08T09:06:57.714Z,9.8
2017-05-08T09:08:00.068Z,9.9
2017-05-08T09:09:02.429Z,9.6
2017-05-08T09:10:07.974Z,9.9
2017-05-08T09:11:10.373Z,10.1
2017-05-08T09:12:12.855Z,9.9
2017-05-08T09:13:16.021Z,9.7
2017-05-08T09:14:18.408Z,9.5
2017-05-08T09:15:20.890Z,9.9
2017-05-08T09:16:23.312Z,9.6
2017-05-08T09:17:26.006Z,9.5
2017-05-08T09:18:28.445Z,9.9
2017-05-08T09:19:30.870Z,9.6
2017-05-08T09:20:33.287Z,9.4
2017-05-08T09:21:35.645Z,9.6
2017-05-08T09:22:38.062Z,9.6
2017-05-08T09:23:43.437Z,9.7
2017-05-08T09:24:45.884Z,9.9
2017-05-08T09:25:48.320Z,10.1
2017-05-08T09:26:50.713Z,10.2
2017-05-08T09:27:53.105Z,10.5
2017-05-08T09:28:55.504Z,10.5
2017-05-08T09:29:57.964Z,10.3
2017-05-08T09:31:00.397Z,9.8
2017-05-08T09:32:03.125Z,10.1
2017-05-08T09:33:05.577Z,10.1
2017-05-08T09:34:07.970Z,10.1
2017-05-08T09:35:10.368Z,10.3
2017-05-08T09:36:12.729Z,10.1
2017-05-08T09:37:15.078Z,10.2
2017-05-08T09:38:17.474Z,10.2
2017-05-08T09:39:19.942Z,10.6
2017-05-08T09:40:27.233Z,10.2
2017-05-08T09:41:31.298Z,10.1
2017-05-08T09:42:33.716Z,10.5
2017-05-08T09:43:36.145Z,10.1
2017-05-08T09:44:38.520Z,10.3
2017-05-08T09:45:40.944Z,10.4
2017-05-08T09:46:43.351Z,10.2
2017-05-08T09:47:45.770Z,10.4
2017-05-08T09:48:48.238Z,10.1
2017-05-08T09:49:50.642Z,10.3
2017-05-08T09:50:53.985Z,10.4
2017-05-08T09:51:56.373Z,10.2
2017-05-08T09:52:58.814Z,10.3
2017-05-08T09:54:01.189Z,10.4
2017-05-08T09:55:03.593Z,10.2
2017-05-08T09:56:05.964Z,10.3
2017-05-08T09:57:08.358Z,10.6
2017-05-08T09:58:10.780Z,10.9
2017-05-08T09:59:13.182Z,11.3
2017-05-08T10:00:15.592Z,11
2017-05-08T10:01:18.035Z,11.2
2017-05-08T10:02:20.404Z,10.8
2017-05-08T10:03:22.795Z,10.9
2017-05-08T10:04:25.238Z,10.9
2017-05-08T10:05:27.673Z,10.8
2017-05-08T10:06:30.067Z,11
2017-05-08T10:07:32.458Z,10.7
2017-05-08T10:08:35.065Z,11
2017-05-08T10:09:37.599Z,11.1
2017-05-08T10:10:40.043Z,10.9
2017-05-08T10:11:42.411Z,10.8
2017-05-08T10:12:46.010Z,10.9
2017-05-08T10:13:49.134Z,10.5
2017-05-08T10:14:51.512Z,10.6
2017-05-08T10:15:53.879Z,10.2
2017-05-08T10:16:56.628Z,10
2017-05-08T10:17:59.052Z,10.2
2017-05-08T10:19:01.513Z,10.4
2017-05-08T10:20:03.912Z,10.3
2017-05-08T10:21:06.329Z,10.6
2017-05-08T10:22:08.701Z,10.2
2017-05-08T10:23:11.094Z,10.2
2017-05-08T10:24:17.577Z,10.4
2017-05-08T10:25:21.325Z,10.7
2017-05-08T10:26:23.824Z,10.3
2017-05-08T10:27:26.388Z,10.6
2017-05-08T10:28:34.992Z,10.6
2017-05-08T10:29:37.484Z,10.6
2017-05-08T10:30:39.875Z,10.2
2017-05-08T10:31:42.287Z,10.5
2017-05-08T10:32:44.770Z,10.7
2017-05-08T10:33:47.190Z,10.7
2017-05-08T10:34:49.608Z,10.6
2017-05-08T10:35:53.077Z,10.5
2017-05-08T10:36:55.582Z,9.9
2017-05-08T10:37:58.081Z,10.4
2017-05-08T10:39:00.486Z,10.5
2017-05-08T10:40:02.888Z,10.5
2017-05-08T10:41:05.458Z,10.6
2017-05-08T10:42:07.845Z,10.6
2017-05-08T10:43:10.249Z,10.6
2017-05-08T10:44:12.672Z,10.4
2017-05-08T10:45:15.728Z,10.4
2017-05-08T10:46:18.152Z,10.4
2017-05-08T10:47:20.567Z,9.6
2017-05-08T10:48:22.942Z,9.8
2017-05-08T10:49:25.422Z,9.5
2017-05-08T10:50:27.874Z,9.7
2017-05-08T10:51:31.318Z,9.9
2017-05-08T10:52:33.822Z,9.6
2017-05-08T10:53:36.405Z,9.5
2017-05-08T10:54:39.298Z,9.7
2017-05-08T10:55:41.788Z,10
2017-05-08T10:56:44.147Z,10
2017-05-08T10:57:46.567Z,10.3
2017-05-08T10:58:49.674Z,10.4
2017-05-08T10:59:52.116Z,10.3
2017-05-08T11:00:54.645Z,10.3
2017-05-08T11:01:57.125Z,10.6
2017-05-08T11:02:59.605Z,10.5
2017-05-08T11:04:02.149Z,10.1
2017-05-08T11:05:04.585Z,10.2
2017-05-08T11:07:14.392Z,10.3
2017-05-08T11:08:16.834Z,10.8
2017-05-08T11:09:19.300Z,10.7
2017-05-08T11:10:21.727Z,11
2017-05-08T11:11:24.220Z,11.1
2017-05-08T11:12:26.740Z,11.3
2017-05-08T11:13:29.210Z,11.2
2017-05-08T11:14:32.289Z,11
2017-05-08T11:15:34.829Z,11.2
2017-05-08T11:16:37.330Z,11.3
2017-05-08T11:17:39.835Z,11.7
2017-05-08T11:18:42.564Z,11.7
2017-05-08T11:19:45.041Z,11.9
2017-05-08T11:20:48.216Z,12.3
2017-05-08T11:21:50.722Z,12.2
2017-05-08T11:22:53.239Z,12.2
2017-05-08T11:23:55.831Z,12
2017-05-08T11:24:58.382Z,12
2017-05-08T11:26:00.837Z,11.9
2017-05-08T11:27:04.036Z,12.1
2017-05-08T11:28:06.459Z,12.1
2017-05-08T11:29:08.977Z,11.7
2017-05-08T11:30:11.673Z,12
2017-05-08T11:31:14.133Z,12.1
2017-05-08T11:32:25.648Z,12.1
2017-05-08T11:33:28.790Z,11.7
2017-05-08T11:34:31.243Z,11.7
2017-05-08T11:35:35.772Z,10.9
2017-05-08T11:36:38.354Z,11.1
2017-05-08T11:37:41.398Z,11.2
2017-05-08T11:38:43.865Z,11.3
2017-05-08T11:39:55.185Z,11.5
2017-05-08T11:40:57.680Z,11.4
2017-05-08T11:42:00.151Z,11.6
2017-05-08T11:43:02.642Z,10.7
2017-05-08T11:44:05.837Z,11
2017-05-08T11:45:08.240Z,10.8
2017-05-08T11:46:10.857Z,11
2017-05-08T11:48:20.096Z,10.7
2017-05-08T11:49:31.464Z,10.8
2017-05-08T11:50:33.898Z,11.3
2017-05-08T11:51:36.319Z,11.2
2017-05-08T11:52:38.753Z,10.7
2017-05-08T11:53:41.169Z,10.8
2017-05-08T11:54:43.637Z,11.3
2017-05-08T11:55:46.071Z,11.4
2017-05-08T11:56:48.530Z,11.7
2017-05-08T11:57:51.024Z,11.2
2017-05-08T11:58:53.465Z,11.2
2017-05-08T11:59:55.976Z,11.3
2017-05-08T12:00:58.385Z,11.6
2017-05-08T12:02:01.107Z,11.6
2017-05-08T12:03:03.608Z,11.5
2017-05-08T12:04:06.725Z,11.4
2017-05-08T12:05:09.217Z,11.3
2017-05-08T12:06:11.849Z,11.8
2017-05-08T12:07:14.366Z,12.1
2017-05-08T12:08:16.836Z,11.9
2017-05-08T12:09:19.220Z,11.9
2017-05-08T12:10:21.671Z,11.6
2017-05-08T12:11:24.087Z,11.6
2017-05-08T12:12:26.543Z,11.8
2017-05-08T12:13:29.999Z,12.3
2017-05-08T12:14:32.732Z,12.6
2017-05-08T12:15:35.141Z,12.9
2017-05-08T12:16:37.634Z,12.9
2017-05-08T12:17:40.173Z,12.7
2017-05-08T12:18:42.611Z,12.9
2017-05-08T12:19:45.041Z,13.1
2017-05-08T12:20:47.746Z,13.1
2017-05-08T12:21:51.211Z,13.3
2017-05-08T12:22:55.443Z,13
2017-05-08T12:23:58.324Z,13.2
2017-05-08T12:25:00.783Z,13
2017-05-08T12:26:03.241Z,12.9
2017-05-08T12:27:06.642Z,13.3
2017-05-08T12:28:09.118Z,13
2017-05-08T12:29:12.626Z,13.2
2017-05-08T12:30:15.745Z,13
2017-05-08T12:31:18.261Z,13.1
2017-05-08T12:32:21.227Z,12.9
2017-05-08T12:33:23.640Z,12.9
2017-05-08T12:34:26.094Z,12.6
2017-05-08T12:35:28.540Z,12.9
2017-05-08T12:36:32.355Z,13
2017-05-08T12:37:37.254Z,12.6
2017-05-08T12:38:39.795Z,12.8
2017-05-08T12:39:42.416Z,12.9
2017-05-08T12:40:45.029Z,13
2017-05-08T12:41:47.670Z,12.9
2017-05-08T12:42:50.164Z,13.3
2017-05-08T12:43:53.220Z,13.2
2017-05-08T12:44:55.657Z,13.5
2017-05-08T12:45:58.075Z,13.5
2017-05-08T12:47:01.064Z,13.5
2017-05-08T12:48:03.547Z,13.4
2017-05-08T12:49:06.616Z,13
2017-05-08T12:50:09.146Z,13.2
2017-05-08T12:51:12.924Z,12.9
2017-05-08T12:52:15.932Z,13
2017-05-08T12:53:18.453Z,13
2017-05-08T12:54:21.672Z,13.1
2017-05-08T12:55:24.057Z,13.1
2017-05-08T12:56:26.536Z,12.7
2017-05-08T12:57:29.039Z,12.7
2017-05-08T12:58:31.551Z,12.8
2017-05-08T12:59:33.990Z,12.8
2017-05-08T13:00:36.472Z,12.7
2017-05-08T13:01:38.960Z,12.1
2017-05-08T13:02:44.214Z,11.6
2017-05-08T13:03:46.642Z,12
2017-05-08T13:04:49.727Z,11.9
2017-05-08T13:05:52.260Z,12
2017-05-08T13:06:54.729Z,11.7
2017-05-08T13:07:57.200Z,12
2017-05-08T13:09:01.113Z,11.9
2017-05-08T13:10:03.603Z,12.1
2017-05-08T13:11:06.088Z,12.3
2017-05-08T13:12:10.094Z,12.4
2017-05-08T13:13:14.123Z,12.5
2017-05-08T13:14:17.134Z,12.6
2017-05-08T13:15:21.748Z,12.4
2017-05-08T13:16:25.180Z,12.5
2017-05-08T13:17:28.651Z,12.3
2017-05-08T13:19:43.157Z,12.1
2017-05-08T13:20:45.661Z,12.2
2017-05-08T13:21:48.107Z,11.1
2017-05-08T13:22:50.664Z,11.6
2017-05-08T13:23:53.101Z,11.8
2017-05-08T13:24:55.653Z,11.9
2017-05-08T13:25:58.516Z,11.8
2017-05-08T13:27:07.241Z,11.6
2017-05-08T13:28:09.727Z,11.1
2017-05-08T13:29:12.219Z,10.9
2017-05-08T13:30:14.691Z,11.1
2017-05-08T13:31:17.299Z,11.2
2017-05-08T13:32:19.805Z,11.3
2017-05-08T13:33:22.254Z,11.5
2017-05-08T13:34:24.870Z,11.8
2017-05-08T13:35:27.273Z,11.9
2017-05-08T13:36:31.468Z,12
2017-05-08T13:37:34.986Z,11.5
2017-05-08T13:38:37.626Z,11.6
2017-05-08T13:39:40.100Z,11.2
2017-05-08T13:40:43.552Z,11.6
2017-05-08T13:41:45.985Z,11.7
2017-05-08T13:42:49.003Z,11.6
2017-05-08T13:43:51.645Z,11.6
2017-05-08T13:44:54.132Z,11.5
2017-05-08T13:45:57.253Z,11.7
2017-05-08T13:47:00.364Z,11.8
2017-05-08T13:48:02.908Z,11.3
2017-05-08T13:49:05.344Z,11.1
2017-05-08T13:50:07.897Z,11.2
2017-05-08T13:51:10.429Z,11.3
2017-05-08T13:52:12.857Z,11.5
2017-05-08T13:53:15.560Z,11.4
2017-05-08T13:54:19.599Z,11.2
2017-05-08T13:55:22.734Z,11.3
2017-05-08T13:56:25.177Z,11.5
2017-05-08T13:57:27.666Z,11.8
2017-05-08T13:58:30.047Z,11.3
2017-05-08T13:59:32.496Z,11.7
2017-05-08T14:00:34.984Z,11.7
2017-05-08T14:01:38.067Z,11.8
2017-05-08T14:02:41.465Z,11.7
2017-05-08T14:03:43.997Z,11.1
2017-05-08T14:04:47.168Z,11.4
2017-05-08T14:05:50.166Z,11.6
2017-05-08T14:06:53.586Z,11.5
2017-05-08T14:07:57.529Z,11.4
2017-05-08T14:08:59.976Z,10.9
2017-05-08T14:10:02.403Z,11
2017-05-08T14:11:04.829Z,10.7
2017-05-08T14:13:14.759Z,11.1
2017-05-08T14:14:17.993Z,10.7
2017-05-08T14:15:20.490Z,11
2017-05-08T14:16:22.968Z,10.6
2017-05-08T14:17:25.460Z,10.4